createdAt,value
2022-12-29T00:00:19.016Z,1.20
2022-12-29T00:02:46.137Z,1.10
2022-12-29T00:05:13.128Z,1.10
2022-12-29T00:07:40.026Z,1.20
2022-12-29T00:10:07.481Z,1.10
2022-12-29T00:12:52.799Z,1.10
2022-12-29T00:15:38.115Z,1.10
2022-12-29T00:18:05.262Z,1.10
2022-12-29T00:20:53.673Z,1.00
2022-12-29T00:23:40.208Z,1.00
2022-12-29T00:26:36.566Z,0.90
2022-12-29T00:29:22.634Z,0.90
2022-12-29T00:32:08.346Z,0.80
2022-12-29T00:34:54.062Z,0.80
2022-12-29T00:37:41.287Z,0.90
2022-12-29T00:40:27.580Z,0.80
2022-12-29T00:43:13.065Z,0.80
2022-12-29T00:45:42.858Z,0.80
2022-12-29T00:48:09.896Z,0.80
2022-12-29T00:50:36.904Z,0.80
2022-12-29T00:53:04.036Z,0.80
2022-12-29T00:55:31.022Z,0.80
2022-12-29T00:57:58.253Z,0.70
2022-12-29T01:00:25.185Z,0.60
2022-12-29T01:02:52.171Z,0.60
2022-12-29T01:05:19.138Z,0.70
2022-12-29T01:07:46.148Z,0.80
2022-12-29T01:10:13.134Z,0.90
2022-12-29T01:12:43.091Z,0.90
2022-12-29T01:15:12.402Z,0.90
2022-12-29T01:17:39.729Z,0.80
2022-12-29T01:20:07.377Z,0.90
2022-12-29T01:22:34.407Z,0.90
2022-12-29T01:25:01.315Z,0.80
2022-12-29T01:27:28.841Z,0.70
2022-12-29T01:29:55.709Z,0.60
2022-12-29T01:32:22.664Z,0.70
2022-12-29T01:34:49.604Z,0.60
2022-12-29T01:37:16.555Z,0.60
2022-12-29T01:39:44.943Z,0.60
2022-12-29T01:42:20.907Z,0.60
2022-12-29T01:45:12.180Z,0.50
2022-12-29T01:47:47.033Z,0.50
2022-12-29T01:50:26.149Z,0.40
2022-12-29T01:53:00.996Z,0.40
2022-12-29T01:55:32.448Z,0.40
2022-12-29T01:58:03.378Z,0.40
2022-12-29T02:00:30.397Z,0.40
2022-12-29T02:02:57.637Z,0.40
2022-12-29T02:05:24.559Z,0.40
2022-12-29T02:07:52.765Z,0.40
2022-12-29T02:10:25.903Z,0.30
2022-12-29T02:12:53.847Z,0.40
2022-12-29T02:15:44.218Z,0.30
2022-12-29T02:18:17.200Z,0.30
2022-12-29T02:21:00.428Z,0.40
2022-12-29T02:23:39.377Z,0.30
2022-12-29T02:26:32.211Z,0.30
2022-12-29T02:29:18.174Z,0.30
2022-12-29T02:31:56.024Z,0.30
2022-12-29T02:34:31.803Z,0.30
2022-12-29T02:37:45.113Z,0.30
2022-12-29T02:40:22.141Z,0.20
2022-12-29T02:42:52.653Z,0.20
2022-12-29T02:45:23.703Z,0.10
2022-12-29T02:48:02.102Z,0.10
2022-12-29T02:50:37.426Z,0.10
2022-12-29T02:53:15.801Z,0.20
2022-12-29T02:55:52.977Z,0.30
2022-12-29T02:58:23.451Z,0.30
2022-12-29T03:00:59.608Z,0.30
2022-12-29T03:03:42.902Z,0.40
2022-12-29T03:06:53.183Z,0.40
2022-12-29T03:09:43.098Z,0.40
2022-12-29T03:12:24.236Z,0.30
2022-12-29T03:15:27.844Z,0.30
2022-12-29T03:18:07.970Z,0.30
2022-12-29T03:20:54.796Z,0.40
2022-12-29T03:23:24.733Z,0.40
2022-12-29T03:25:57.262Z,0.50
2022-12-29T03:28:28.778Z,0.50
2022-12-29T03:30:58.228Z,0.40
2022-12-29T03:33:28.644Z,0.40
2022-12-29T03:36:03.363Z,0.30
2022-12-29T03:38:36.442Z,0.30
2022-12-29T03:41:11.082Z,0.30
2022-12-29T03:43:38.907Z,0.30
2022-12-29T03:46:05.923Z,0.30
2022-12-29T03:48:33.920Z,0.20
2022-12-29T03:51:01.566Z,0.20
2022-12-29T03:53:28.548Z,0.20
2022-12-29T03:55:55.435Z,0.20
2022-12-29T03:58:22.347Z,0.10
2022-12-29T04:00:49.253Z,0.10
2022-12-29T04:03:16.187Z,0.10
2022-12-29T04:05:45.305Z,0.10
2022-12-29T04:08:12.235Z,0.20
2022-12-29T04:10:39.093Z,0.20
2022-12-29T04:13:06.014Z,0.30
2022-12-29T04:15:32.937Z,0.30
2022-12-29T04:17:59.894Z,0.30
2022-12-29T04:20:45.547Z,0.30
2022-12-29T04:23:12.479Z,0.30
2022-12-29T04:25:39.381Z,0.20
2022-12-29T04:28:06.470Z,0.20
2022-12-29T04:30:34.577Z,0.20
2022-12-29T04:33:01.467Z,0.10
2022-12-29T04:35:28.345Z,0.00
2022-12-29T04:37:55.205Z,0.00
2022-12-29T04:40:22.109Z,0.00
2022-12-29T04:42:49.210Z,0.00
2022-12-29T04:45:16.155Z,0.10
2022-12-29T04:47:44.132Z,0.10
2022-12-29T04:50:11.451Z,0.00
2022-12-29T04:52:38.458Z,0.00
2022-12-29T04:55:06.552Z,0.10
2022-12-29T04:57:34.395Z,0.00
2022-12-29T05:00:01.341Z,0.00
2022-12-29T05:02:28.443Z,-0.10
2022-12-29T05:04:55.444Z,-0.10
2022-12-29T05:07:22.381Z,0.00
2022-12-29T05:09:49.407Z,0.00
2022-12-29T05:12:16.328Z,0.00
2022-12-29T05:14:44.900Z,0.00
2022-12-29T05:17:11.831Z,0.00
2022-12-29T05:19:39.313Z,0.00
2022-12-29T05:22:06.279Z,0.00
2022-12-29T05:24:34.243Z,-0.10
2022-12-29T05:27:01.253Z,-0.10
2022-12-29T05:29:28.127Z,-0.10
2022-12-29T05:31:55.111Z,-0.20
2022-12-29T05:34:22.006Z,-0.10
2022-12-29T05:36:48.958Z,-0.10
2022-12-29T05:39:15.880Z,0.00
2022-12-29T05:41:42.774Z,0.00
2022-12-29T05:44:11.636Z,0.00
2022-12-29T05:46:39.029Z,0.00
2022-12-29T05:49:06.779Z,0.00
2022-12-29T05:51:33.739Z,0.00
2022-12-29T05:54:00.651Z,0.10
2022-12-29T05:56:27.527Z,0.00
2022-12-29T05:58:54.411Z,-0.10
2022-12-29T06:01:21.519Z,-0.10
2022-12-29T06:03:48.960Z,-0.10
2022-12-29T06:06:16.184Z,-0.10
2022-12-29T06:08:43.292Z,-0.10
2022-12-29T06:11:10.941Z,0.00
2022-12-29T06:13:37.907Z,0.00
2022-12-29T06:16:05.208Z,0.00
2022-12-29T06:18:32.252Z,0.00
2022-12-29T06:21:03.530Z,0.00
2022-12-29T06:23:30.666Z,0.00
2022-12-29T06:25:58.463Z,0.00
2022-12-29T06:28:25.427Z,0.10
2022-12-29T06:30:52.311Z,0.10
2022-12-29T06:33:19.308Z,0.10
2022-12-29T06:35:47.065Z,0.10
2022-12-29T06:38:14.053Z,0.10
2022-12-29T06:40:42.358Z,0.10
2022-12-29T06:43:09.252Z,0.10
2022-12-29T06:45:36.242Z,0.10
2022-12-29T06:48:03.168Z,0.10
2022-12-29T06:50:30.066Z,0.20
2022-12-29T06:52:56.932Z,0.20
2022-12-29T06:55:23.854Z,0.20
2022-12-29T06:57:50.787Z,0.20
2022-12-29T07:00:22.673Z,0.20
2022-12-29T07:02:50.264Z,0.30
2022-12-29T07:05:17.338Z,0.30
2022-12-29T07:07:44.724Z,0.40
2022-12-29T07:10:11.719Z,0.40
2022-12-29T07:12:38.667Z,0.50
2022-12-29T07:15:05.961Z,0.50
2022-12-29T07:17:32.884Z,0.60
2022-12-29T07:20:00.000Z,0.70
2022-12-29T07:22:26.940Z,0.90
2022-12-29T07:24:53.849Z,1.00
2022-12-29T07:27:20.712Z,1.00
2022-12-29T07:29:47.635Z,1.10
2022-12-29T07:32:14.511Z,1.10
2022-12-29T07:34:41.479Z,1.20
2022-12-29T07:37:08.409Z,1.40
2022-12-29T07:39:35.305Z,1.60
2022-12-29T07:42:05.192Z,1.60
2022-12-29T07:44:32.368Z,1.70
2022-12-29T07:46:59.481Z,1.70
2022-12-29T07:49:27.445Z,1.70
2022-12-29T07:51:54.341Z,1.90
2022-12-29T07:54:21.485Z,2.00
2022-12-29T07:56:48.456Z,2.10
2022-12-29T07:59:15.751Z,2.20
2022-12-29T08:01:42.889Z,2.30
2022-12-29T08:04:10.151Z,2.40
2022-12-29T08:06:38.849Z,2.40
2022-12-29T08:09:13.657Z,2.50
2022-12-29T08:11:44.481Z,2.70
2022-12-29T08:14:11.488Z,2.90
2022-12-29T08:16:38.439Z,3.00
2022-12-29T08:19:06.169Z,3.00
2022-12-29T08:21:33.259Z,3.20
2022-12-29T08:24:00.439Z,3.00
2022-12-29T08:26:27.508Z,2.80
2022-12-29T08:28:56.806Z,2.70
2022-12-29T08:31:25.031Z,2.50
2022-12-29T08:33:52.578Z,2.40
2022-12-29T08:36:19.594Z,2.30
2022-12-29T08:38:46.503Z,2.40
2022-12-29T08:41:13.609Z,2.40
2022-12-29T08:43:40.660Z,2.40
2022-12-29T08:46:07.643Z,2.50
2022-12-29T08:48:34.631Z,2.50
2022-12-29T08:51:01.540Z,2.50
2022-12-29T08:53:28.503Z,2.60
2022-12-29T08:56:05.110Z,2.70
2022-12-29T08:58:32.692Z,2.70
2022-12-29T09:00:59.732Z,2.70
2022-12-29T09:03:55.121Z,2.90
2022-12-29T09:06:15.223Z,2.90
2022-12-29T09:08:42.304Z,2.90
2022-12-29T09:11:18.398Z,2.80
2022-12-29T09:13:45.388Z,2.70
2022-12-29T09:16:12.608Z,2.80
2022-12-29T09:18:40.305Z,2.80
2022-12-29T09:21:08.484Z,2.80
2022-12-29T09:23:35.956Z,2.80
2022-12-29T09:26:03.776Z,2.80
2022-12-29T09:28:31.430Z,2.80
2022-12-29T09:31:04.233Z,2.80
2022-12-29T09:33:31.248Z,2.80
2022-12-29T09:35:59.723Z,2.80
2022-12-29T09:38:27.851Z,2.90
2022-12-29T09:41:09.474Z,3.00
2022-12-29T09:44:10.023Z,3.10
2022-12-29T09:46:49.331Z,3.30
2022-12-29T09:49:30.265Z,3.30
2022-12-29T09:52:05.072Z,3.20
2022-12-29T09:54:49.725Z,3.20
2022-12-29T09:57:44.198Z,3.10
2022-12-29T10:00:24.974Z,3.10
2022-12-29T10:03:02.968Z,3.10
2022-12-29T10:05:51.254Z,3.20
2022-12-29T10:08:21.092Z,3.20
2022-12-29T10:11:16.602Z,3.10
2022-12-29T10:14:00.947Z,3.10
2022-12-29T10:16:39.914Z,3.20
2022-12-29T10:19:33.607Z,3.30
2022-12-29T10:22:13.048Z,3.50
2022-12-29T10:24:41.058Z,3.50
2022-12-29T10:27:16.873Z,3.40
2022-12-29T10:29:54.187Z,3.40
2022-12-29T10:32:41.239Z,3.40
2022-12-29T10:35:22.160Z,3.40
2022-12-29T10:37:59.584Z,3.30
2022-12-29T10:40:58.346Z,3.40
2022-12-29T10:43:34.605Z,3.50
2022-12-29T10:46:10.390Z,3.60
2022-12-29T10:48:37.594Z,3.60
2022-12-29T10:51:08.193Z,3.70
2022-12-29T10:53:47.331Z,3.90
2022-12-29T10:56:41.641Z,3.90
2022-12-29T10:59:26.728Z,3.90
2022-12-29T11:02:12.131Z,3.90
2022-12-29T11:05:09.982Z,3.90
2022-12-29T11:07:37.850Z,3.90
2022-12-29T11:10:33.944Z,4.00
2022-12-29T11:13:14.172Z,4.10
2022-12-29T11:15:49.701Z,4.20
2022-12-29T11:18:27.576Z,4.30
2022-12-29T11:21:01.317Z,4.30
2022-12-29T11:23:35.916Z,4.30
2022-12-29T11:26:11.449Z,4.30
2022-12-29T11:28:39.882Z,4.30
2022-12-29T11:31:08.535Z,4.30
2022-12-29T11:33:37.897Z,4.50
2022-12-29T11:36:11.971Z,4.60
2022-12-29T11:38:43.303Z,4.50
2022-12-29T11:41:14.948Z,4.50
2022-12-29T11:43:45.797Z,4.50
2022-12-29T11:46:24.539Z,4.50
2022-12-29T11:48:51.725Z,4.60
2022-12-29T11:51:40.428Z,4.50
2022-12-29T11:54:08.044Z,4.30
2022-12-29T11:56:44.432Z,4.30
2022-12-29T11:59:39.208Z,4.30
2022-12-29T12:02:50.402Z,4.20
2022-12-29T12:05:24.835Z,4.00
2022-12-29T12:08:20.733Z,4.00
2022-12-29T12:11:17.738Z,4.00
2022-12-29T12:13:56.815Z,4.00
2022-12-29T12:16:29.717Z,4.10
2022-12-29T12:19:39.243Z,4.10
2022-12-29T12:22:25.827Z,4.00
2022-12-29T12:25:13.737Z,4.00
2022-12-29T12:27:50.707Z,4.10
2022-12-29T12:30:23.196Z,4.20
2022-12-29T12:32:59.798Z,4.20
2022-12-29T12:35:42.486Z,4.20
2022-12-29T12:38:38.246Z,4.20
2022-12-29T12:41:26.884Z,4.30
2022-12-29T12:44:11.265Z,4.40
2022-12-29T12:46:51.951Z,4.40
2022-12-29T12:49:31.244Z,4.40
2022-12-29T12:52:20.830Z,4.30
2022-12-29T12:54:53.321Z,4.30
2022-12-29T12:57:46.435Z,4.40
2022-12-29T13:00:20.265Z,4.40
2022-12-29T13:03:11.267Z,4.50
2022-12-29T13:05:50.512Z,4.50
2022-12-29T13:08:24.933Z,4.60
2022-12-29T13:11:01.962Z,4.60
2022-12-29T13:13:31.630Z,4.60
2022-12-29T13:15:58.603Z,4.60
2022-12-29T13:18:36.595Z,4.70
2022-12-29T13:21:06.457Z,4.80
2022-12-29T13:23:47.610Z,4.80
2022-12-29T13:26:46.703Z,4.90
2022-12-29T13:29:20.209Z,4.90
2022-12-29T13:32:17.275Z,4.90
2022-12-29T13:34:58.066Z,4.90
2022-12-29T13:37:29.018Z,4.90
2022-12-29T13:40:04.413Z,4.90
2022-12-29T13:42:32.437Z,4.90
2022-12-29T13:45:07.539Z,4.90
2022-12-29T13:47:39.081Z,5.00
2022-12-29T13:50:29.308Z,5.00
2022-12-29T13:53:14.258Z,5.00
2022-12-29T13:56:01.190Z,5.00
2022-12-29T13:58:54.191Z,5.00
2022-12-29T14:01:30.063Z,5.00
2022-12-29T14:04:00.425Z,4.90
2022-12-29T14:06:33.079Z,4.90
2022-12-29T14:09:04.868Z,4.90
2022-12-29T14:11:37.981Z,4.80
2022-12-29T14:14:24.681Z,4.70
2022-12-29T14:16:53.303Z,4.60
2022-12-29T14:19:31.603Z,4.40
2022-12-29T14:22:03.261Z,4.30
2022-12-29T14:24:36.034Z,4.30
2022-12-29T14:27:22.878Z,4.20
2022-12-29T14:29:51.858Z,4.20
2022-12-29T14:32:27.586Z,4.20
2022-12-29T14:34:58.417Z,4.20
2022-12-29T14:37:33.155Z,4.10
2022-12-29T14:40:19.174Z,4.00
2022-12-29T14:42:50.661Z,3.80
2022-12-29T14:45:17.804Z,3.70
2022-12-29T14:47:47.527Z,3.60
2022-12-29T14:50:39.962Z,3.50
2022-12-29T14:53:08.164Z,3.30
2022-12-29T14:55:54.889Z,3.20
2022-12-29T14:58:39.657Z,3.20
2022-12-29T15:01:34.879Z,3.10
2022-12-29T15:04:16.323Z,3.00
2022-12-29T15:06:46.029Z,3.00
2022-12-29T15:09:39.774Z,3.00
2022-12-29T15:12:42.645Z,2.90
2022-12-29T15:15:23.607Z,2.80
2022-12-29T15:17:50.693Z,2.70
2022-12-29T15:20:17.643Z,2.60
2022-12-29T15:22:53.028Z,2.50
2022-12-29T15:25:20.159Z,2.50
2022-12-29T15:27:56.348Z,2.50
2022-12-29T15:30:24.017Z,2.50
2022-12-29T15:32:51.613Z,2.40
2022-12-29T15:35:33.616Z,2.30
2022-12-29T15:38:01.275Z,2.20
2022-12-29T15:40:32.847Z,2.20
2022-12-29T15:43:09.116Z,2.20
2022-12-29T15:45:36.920Z,2.10
2022-12-29T15:48:05.897Z,2.00
2022-12-29T15:50:36.342Z,1.90
2022-12-29T15:53:04.208Z,1.90
2022-12-29T15:55:40.507Z,1.80
2022-12-29T15:58:20.969Z,1.80
2022-12-29T16:00:51.332Z,1.80
2022-12-29T16:03:18.726Z,1.80
2022-12-29T16:05:56.022Z,1.80
2022-12-29T16:08:41.558Z,1.80
2022-12-29T16:11:41.961Z,1.80
2022-12-29T16:14:16.397Z,1.80
2022-12-29T16:16:45.730Z,1.80
2022-12-29T16:19:25.625Z,1.80
2022-12-29T16:21:53.044Z,1.80
2022-12-29T16:24:25.957Z,1.80
2022-12-29T16:27:03.734Z,1.80
2022-12-29T16:29:32.035Z,1.70
2022-12-29T16:32:01.823Z,1.70
2022-12-29T16:34:43.065Z,1.60
2022-12-29T16:37:22.088Z,1.60
2022-12-29T16:39:48.974Z,1.50
2022-12-29T16:42:34.442Z,1.50
2022-12-29T16:45:19.493Z,1.50
2022-12-29T16:48:07.967Z,1.40
2022-12-29T16:50:41.102Z,1.40
2022-12-29T16:53:28.623Z,1.40
2022-12-29T16:55:58.426Z,1.40
2022-12-29T16:58:32.634Z,1.40
2022-12-29T17:01:01.377Z,1.40
2022-12-29T17:03:39.622Z,1.40
2022-12-29T17:06:06.845Z,1.40
2022-12-29T17:08:42.279Z,1.30
2022-12-29T17:11:44.317Z,1.30
2022-12-29T17:14:22.892Z,1.30
2022-12-29T17:16:50.031Z,1.40
2022-12-29T17:19:29.188Z,1.30
2022-12-29T17:21:56.379Z,1.30
2022-12-29T17:24:23.276Z,1.30
2022-12-29T17:26:56.227Z,1.30
2022-12-29T17:29:32.082Z,1.30
2022-12-29T17:31:59.717Z,1.30
2022-12-29T17:34:26.914Z,1.30
2022-12-29T17:36:53.873Z,1.30
2022-12-29T17:39:20.807Z,1.30
2022-12-29T17:41:48.227Z,1.30
2022-12-29T17:44:18.998Z,1.30
2022-12-29T17:46:48.053Z,1.30
2022-12-29T17:49:18.302Z,1.30
2022-12-29T17:51:47.699Z,1.30
2022-12-29T17:54:26.342Z,1.40
2022-12-29T17:56:53.388Z,1.40
2022-12-29T17:59:20.663Z,1.40
2022-12-29T18:01:48.947Z,1.40
2022-12-29T18:04:20.649Z,1.50
2022-12-29T18:06:47.927Z,1.40
2022-12-29T18:09:15.283Z,1.40
2022-12-29T18:11:43.995Z,1.40
2022-12-29T18:14:17.882Z,1.40
2022-12-29T18:16:44.963Z,1.40
2022-12-29T18:19:11.927Z,1.40
2022-12-29T18:21:41.759Z,1.40
2022-12-29T18:24:14.695Z,1.40
2022-12-29T18:26:42.042Z,1.40
2022-12-29T18:29:09.135Z,1.40
2022-12-29T18:31:36.744Z,1.50
2022-12-29T18:34:13.831Z,1.50
2022-12-29T18:36:40.856Z,1.40
2022-12-29T18:39:07.861Z,1.40
2022-12-29T18:41:34.846Z,1.50
2022-12-29T18:44:01.895Z,1.40
2022-12-29T18:46:29.068Z,1.40
2022-12-29T18:48:56.244Z,1.40
2022-12-29T18:51:26.734Z,1.40
2022-12-29T18:53:54.536Z,1.40
2022-12-29T18:56:22.962Z,1.40
2022-12-29T18:58:50.835Z,1.30
2022-12-29T19:01:27.928Z,1.30
2022-12-29T19:03:55.442Z,1.30
2022-12-29T19:06:22.691Z,1.30
2022-12-29T19:08:49.815Z,1.30
2022-12-29T19:11:18.193Z,1.20
2022-12-29T19:13:45.651Z,1.30
2022-12-29T19:16:22.978Z,1.20
2022-12-29T19:19:07.845Z,1.10
2022-12-29T19:21:37.013Z,1.10
2022-12-29T19:24:04.537Z,1.20
2022-12-29T19:26:36.091Z,1.20
2022-12-29T19:29:03.379Z,1.10
2022-12-29T19:31:30.588Z,1.10
2022-12-29T19:33:57.930Z,1.10
2022-12-29T19:36:24.926Z,1.10
2022-12-29T19:38:51.931Z,1.10
2022-12-29T19:41:19.011Z,1.10
2022-12-29T19:43:45.943Z,1.10
2022-12-29T19:46:17.943Z,1.10
2022-12-29T19:48:44.981Z,1.00
2022-12-29T19:51:15.711Z,1.00
2022-12-29T19:53:43.405Z,1.00
2022-12-29T19:56:10.966Z,1.00
2022-12-29T19:58:42.605Z,1.00
2022-12-29T20:01:21.166Z,1.00
2022-12-29T20:03:48.978Z,1.00
2022-12-29T20:06:16.684Z,1.00
2022-12-29T20:08:43.773Z,1.00
2022-12-29T20:11:14.527Z,0.90
2022-12-29T20:13:43.420Z,0.90
2022-12-29T20:16:17.478Z,0.90
2022-12-29T20:18:45.628Z,0.90
2022-12-29T20:21:18.852Z,0.90
2022-12-29T20:23:47.506Z,0.90
2022-12-29T20:26:21.289Z,0.90
2022-12-29T20:28:48.860Z,0.90
2022-12-29T20:31:31.701Z,0.80
2022-12-29T20:33:58.753Z,0.80
2022-12-29T20:36:28.923Z,0.80
2022-12-29T20:38:57.274Z,0.80
2022-12-29T20:41:25.136Z,0.80
2022-12-29T20:43:55.715Z,0.70
2022-12-29T20:46:29.902Z,0.70
2022-12-29T20:49:01.524Z,0.70
2022-12-29T20:51:59.169Z,0.70
2022-12-29T20:54:17.751Z,0.80
2022-12-29T20:56:45.942Z,0.70
2022-12-29T20:59:29.486Z,0.70
2022-12-29T21:01:57.608Z,0.70
2022-12-29T21:04:25.211Z,0.70
2022-12-29T21:06:52.225Z,0.70
2022-12-29T21:09:20.436Z,0.70
2022-12-29T21:11:48.335Z,0.70
2022-12-29T21:14:15.281Z,0.70
2022-12-29T21:16:42.476Z,0.70
2022-12-29T21:19:09.407Z,0.70
2022-12-29T21:21:36.375Z,0.70
2022-12-29T21:24:06.244Z,0.70
2022-12-29T21:26:34.087Z,0.70
2022-12-29T21:29:02.132Z,0.70
2022-12-29T21:31:30.585Z,0.80
2022-12-29T21:33:58.042Z,0.80
2022-12-29T21:36:25.647Z,0.90
2022-12-29T21:38:53.447Z,0.90
2022-12-29T21:41:20.888Z,0.90
2022-12-29T21:44:08.189Z,0.90
2022-12-29T21:46:37.194Z,1.00
2022-12-29T21:49:05.563Z,1.00
2022-12-29T21:51:50.922Z,1.10
2022-12-29T21:54:38.416Z,1.00
2022-12-29T21:57:06.071Z,1.00
2022-12-29T21:59:53.320Z,1.10
2022-12-29T22:02:46.183Z,1.10
2022-12-29T22:05:33.952Z,1.20
2022-12-29T22:08:20.785Z,1.20
2022-12-29T22:11:06.613Z,1.20
2022-12-29T22:13:39.034Z,1.20
2022-12-29T22:16:10.953Z,1.20
2022-12-29T22:18:38.668Z,1.30
2022-12-29T22:21:07.449Z,1.30
2022-12-29T22:23:34.764Z,1.30
2022-12-29T22:26:06.798Z,1.40
2022-12-29T22:28:38.043Z,1.40
2022-12-29T22:31:06.106Z,1.40
2022-12-29T22:33:33.179Z,1.40
2022-12-29T22:36:00.099Z,1.40
2022-12-29T22:38:27.003Z,1.50
2022-12-29T22:40:59.579Z,1.50
2022-12-29T22:43:29.959Z,1.50
2022-12-29T22:46:04.210Z,1.50
2022-12-29T22:48:35.010Z,1.40
2022-12-29T22:51:02.850Z,1.40
2022-12-29T22:53:30.412Z,1.50
2022-12-29T22:56:09.004Z,1.50
2022-12-29T22:58:39.164Z,1.40
2022-12-29T23:01:06.134Z,1.40
2022-12-29T23:03:33.266Z,1.50
2022-12-29T23:06:02.400Z,1.60
2022-12-29T23:08:33.671Z,1.60
2022-12-29T23:11:01.321Z,1.50
2022-12-29T23:13:28.565Z,1.50
2022-12-29T23:15:56.026Z,1.50
2022-12-29T23:18:23.106Z,1.50
2022-12-29T23:20:50.334Z,1.50
2022-12-29T23:23:48.092Z,1.50
2022-12-29T23:26:15.872Z,1.50
2022-12-29T23:28:42.835Z,1.50
2022-12-29T23:31:10.099Z,1.50
2022-12-29T23:33:37.229Z,1.50
2022-12-29T23:36:04.559Z,1.60
2022-12-29T23:38:31.555Z,1.60
2022-12-29T23:40:58.574Z,1.60
2022-12-29T23:43:25.853Z,1.60
2022-12-29T23:45:53.109Z,1.60
2022-12-29T23:48:20.236Z,1.70
2022-12-29T23:50:47.459Z,1.80
2022-12-29T23:53:14.340Z,1.80
2022-12-29T23:55:43.530Z,1.80
2022-12-29T23:58:10.670Z,1.80
